createdAt,value
2023-05-07T00:00:09.651Z,12.76
2023-05-07T00:01:09.048Z,12.75
2023-05-07T00:02:09.046Z,12.75
2023-05-07T00:03:09.082Z,12.73
2023-05-07T00:04:09.178Z,12.72
2023-05-07T00:05:09.545Z,12.73
2023-05-07T00:06:08.963Z,12.68
2023-05-07T00:07:08.978Z,12.65
2023-05-07T00:08:08.971Z,12.68
2023-05-07T00:09:08.944Z,12.68
2023-05-07T00:10:09.262Z,12.67
2023-05-07T00:11:08.908Z,12.68
2023-05-07T00:12:09.118Z,12.67
2023-05-07T00:13:09.451Z,12.65
2023-05-07T00:14:08.878Z,12.64
2023-05-07T00:15:09.160Z,12.65
2023-05-07T00:16:08.948Z,12.62
2023-05-07T00:17:09.065Z,12.64
2023-05-07T00:18:08.830Z,12.62
2023-05-07T00:19:08.809Z,12.58
2023-05-07T00:20:09.011Z,12.60
2023-05-07T00:21:08.798Z,12.60
2023-05-07T00:22:08.801Z,12.58
2023-05-07T00:23:08.782Z,12.55
2023-05-07T00:24:08.784Z,12.60
2023-05-07T00:25:08.808Z,12.58
2023-05-07T00:26:08.769Z,12.57
2023-05-07T00:27:08.767Z,12.58
2023-05-07T00:28:08.729Z,12.54
2023-05-07T00:29:08.718Z,12.53
2023-05-07T00:30:09.003Z,12.53
2023-05-07T00:31:08.738Z,12.50
2023-05-07T00:32:08.743Z,12.54
2023-05-07T00:33:08.692Z,12.47
2023-05-07T00:34:08.685Z,12.47
2023-05-07T00:35:08.930Z,12.49
2023-05-07T00:36:08.665Z,12.47
2023-05-07T00:37:08.621Z,12.45
2023-05-07T00:38:08.611Z,12.45
2023-05-07T00:39:08.613Z,12.46
2023-05-07T00:40:09.015Z,12.42
2023-05-07T00:41:08.606Z,12.40
2023-05-07T00:42:08.588Z,12.39
2023-05-07T00:43:08.553Z,12.35
2023-05-07T00:44:08.618Z,12.35
2023-05-07T00:45:08.572Z,12.31
2023-05-07T00:46:08.566Z,12.29
2023-05-07T00:47:08.524Z,12.31
2023-05-07T00:48:08.576Z,12.31
2023-05-07T00:49:08.502Z,12.31
2023-05-07T00:50:08.598Z,12.28
2023-05-07T00:51:08.488Z,12.29
2023-05-07T00:52:08.502Z,12.27
2023-05-07T00:53:08.613Z,12.24
2023-05-07T00:54:08.483Z,12.25
2023-05-07T00:55:08.661Z,12.27
2023-05-07T00:56:08.452Z,12.27
2023-05-07T00:57:08.430Z,12.24
2023-05-07T00:58:08.412Z,12.24
2023-05-07T00:59:08.508Z,12.22
2023-05-07T01:00:08.427Z,12.24
2023-05-07T01:01:08.377Z,12.24
2023-05-07T01:02:08.351Z,12.22
2023-05-07T01:03:08.387Z,12.27
2023-05-07T01:04:08.395Z,12.27
2023-05-07T01:05:08.315Z,12.25
2023-05-07T01:06:08.312Z,12.27
2023-05-07T01:07:09.093Z,12.27
2023-05-07T01:08:08.309Z,12.25
2023-05-07T01:09:08.269Z,12.28
2023-05-07T01:10:09.337Z,12.27
2023-05-07T01:11:09.087Z,12.25
2023-05-07T01:12:08.259Z,12.28
2023-05-07T01:13:08.575Z,12.24
2023-05-07T01:14:09.095Z,12.25
2023-05-07T01:15:08.212Z,12.25
2023-05-07T01:16:08.219Z,12.25
2023-05-07T01:17:08.316Z,12.22
2023-05-07T01:18:08.281Z,12.22
2023-05-07T01:19:08.167Z,12.21
2023-05-07T01:20:08.239Z,12.20
2023-05-07T01:21:08.172Z,12.18
2023-05-07T01:22:08.160Z,12.18
2023-05-07T01:23:08.143Z,12.21
2023-05-07T01:24:08.161Z,12.20
2023-05-07T01:25:08.112Z,12.18
2023-05-07T01:26:08.097Z,12.18
2023-05-07T01:27:08.155Z,12.17
2023-05-07T01:28:08.074Z,12.15
2023-05-07T01:29:08.068Z,12.15
2023-05-07T01:30:08.124Z,12.10
2023-05-07T01:31:08.133Z,12.15
2023-05-07T01:32:08.055Z,12.13
2023-05-07T01:33:08.082Z,12.15
2023-05-07T01:34:08.006Z,12.12
2023-05-07T01:35:08.005Z,12.10
2023-05-07T01:36:08.042Z,12.12
2023-05-07T01:37:07.971Z,12.10
2023-05-07T01:38:07.966Z,12.13
2023-05-07T01:39:07.959Z,12.10
2023-05-07T01:40:07.981Z,12.13
2023-05-07T01:41:07.994Z,12.12
2023-05-07T01:42:07.919Z,12.09
2023-05-07T01:43:08.056Z,12.12
2023-05-07T01:44:07.897Z,12.09
2023-05-07T01:45:07.904Z,12.04
2023-05-07T01:46:07.930Z,12.02
2023-05-07T01:47:07.867Z,11.99
2023-05-07T01:48:08.006Z,12.02
2023-05-07T01:49:07.842Z,11.99
2023-05-07T01:50:07.861Z,11.97
2023-05-07T01:51:07.812Z,12.02
2023-05-07T01:52:07.824Z,12.02
2023-05-07T01:53:07.804Z,12.02
2023-05-07T01:54:07.816Z,12.03
2023-05-07T01:55:07.813Z,12.02
2023-05-07T01:56:07.769Z,12.02
2023-05-07T01:57:07.826Z,12.02
2023-05-07T01:58:07.802Z,12.03
2023-05-07T01:59:07.771Z,12.00
2023-05-07T02:00:07.763Z,12.02
2023-05-07T02:01:07.713Z,12.00
2023-05-07T02:02:08.081Z,12.03
2023-05-07T02:03:08.676Z,12.00
2023-05-07T02:04:08.038Z,11.99
2023-05-07T02:05:07.908Z,12.00
2023-05-07T02:06:08.589Z,12.00
2023-05-07T02:07:07.671Z,11.99
2023-05-07T02:08:07.680Z,12.00
2023-05-07T02:09:07.653Z,12.00
2023-05-07T02:10:07.628Z,12.00
2023-05-07T02:11:07.634Z,12.00
2023-05-07T02:12:07.598Z,11.97
2023-05-07T02:13:07.737Z,11.99
2023-05-07T02:14:07.579Z,12.00
2023-05-07T02:15:07.568Z,11.99
2023-05-07T02:16:07.704Z,11.95
2023-05-07T02:17:07.551Z,11.97
2023-05-07T02:18:07.569Z,11.94
2023-05-07T02:19:07.539Z,11.95
2023-05-07T02:20:07.519Z,11.97
2023-05-07T02:21:07.512Z,11.97
2023-05-07T02:22:07.547Z,11.95
2023-05-07T02:23:07.568Z,11.94
2023-05-07T02:24:07.500Z,11.95
2023-05-07T02:25:07.476Z,11.91
2023-05-07T02:26:07.482Z,11.91
2023-05-07T02:27:07.478Z,11.91
2023-05-07T02:28:07.463Z,11.94
2023-05-07T02:29:07.445Z,11.91
2023-05-07T02:30:07.473Z,11.90
2023-05-07T02:31:07.420Z,11.87
2023-05-07T02:32:07.513Z,11.88
2023-05-07T02:33:07.455Z,11.90
2023-05-07T02:34:07.393Z,11.87
2023-05-07T02:35:07.382Z,11.87
2023-05-07T02:36:07.387Z,11.86
2023-05-07T02:37:07.381Z,11.86
2023-05-07T02:38:07.365Z,11.84
2023-05-07T02:39:08.073Z,11.86
2023-05-07T02:40:07.330Z,11.83
2023-05-07T02:41:07.379Z,11.83
2023-05-07T02:42:07.602Z,11.83
2023-05-07T02:43:07.284Z,11.83
2023-05-07T02:44:07.273Z,11.81
2023-05-07T02:45:07.271Z,11.81
2023-05-07T02:46:07.316Z,11.84
2023-05-07T02:47:07.246Z,11.81
2023-05-07T02:48:07.281Z,11.83
2023-05-07T02:49:07.243Z,11.81
2023-05-07T02:50:07.224Z,11.83
2023-05-07T02:51:07.248Z,11.81
2023-05-07T02:52:07.188Z,11.80
2023-05-07T02:53:07.372Z,11.81
2023-05-07T02:54:07.194Z,11.83
2023-05-07T02:55:07.186Z,11.81
2023-05-07T02:56:07.154Z,11.80
2023-05-07T02:57:07.138Z,11.81
2023-05-07T02:58:07.135Z,11.78
2023-05-07T02:59:07.117Z,11.77
2023-05-07T03:00:07.122Z,11.77
2023-05-07T03:01:07.136Z,11.75
2023-05-07T03:02:07.112Z,11.77
2023-05-07T03:03:07.146Z,11.78
2023-05-07T03:04:07.188Z,11.77
2023-05-07T03:05:07.069Z,11.75
2023-05-07T03:06:07.046Z,11.78
2023-05-07T03:07:07.035Z,11.75
2023-05-07T03:08:07.021Z,11.77
2023-05-07T03:09:07.057Z,11.78
2023-05-07T03:10:06.995Z,11.75
2023-05-07T03:11:06.989Z,11.75
2023-05-07T03:12:06.999Z,11.78
2023-05-07T03:13:07.100Z,11.78
2023-05-07T03:14:07.004Z,11.75
2023-05-07T03:15:06.966Z,11.75
2023-05-07T03:16:06.979Z,11.75
2023-05-07T03:17:06.929Z,11.73
2023-05-07T03:18:07.100Z,11.75
2023-05-07T03:19:06.937Z,11.73
2023-05-07T03:20:06.897Z,11.72
2023-05-07T03:21:06.913Z,11.70
2023-05-07T03:22:06.873Z,11.69
2023-05-07T03:23:06.883Z,11.68
2023-05-07T03:24:06.852Z,11.66
2023-05-07T03:25:06.898Z,11.66
2023-05-07T03:26:06.855Z,11.65
2023-05-07T03:27:06.872Z,11.66
2023-05-07T03:28:06.797Z,11.62
2023-05-07T03:29:06.759Z,11.60
2023-05-07T03:30:06.744Z,11.57
2023-05-07T03:31:06.773Z,11.55
2023-05-07T03:32:06.793Z,11.54
2023-05-07T03:33:06.807Z,11.54
2023-05-07T03:34:06.720Z,11.51
2023-05-07T03:35:06.701Z,11.51
2023-05-07T03:36:06.693Z,11.48
2023-05-07T03:37:06.687Z,11.45
2023-05-07T03:38:06.657Z,11.43
2023-05-07T03:39:06.647Z,11.41
2023-05-07T03:40:06.630Z,11.37
2023-05-07T03:41:06.615Z,11.35
2023-05-07T03:42:06.669Z,11.30
2023-05-07T03:43:06.597Z,11.29
2023-05-07T03:44:06.583Z,11.26
2023-05-07T03:45:06.590Z,11.22
2023-05-07T03:46:06.633Z,11.22
2023-05-07T03:47:06.579Z,11.19
2023-05-07T03:48:06.621Z,11.22
2023-05-07T03:49:06.528Z,11.18
2023-05-07T03:50:06.527Z,11.12
2023-05-07T03:51:06.530Z,11.11
2023-05-07T03:52:06.506Z,11.15
2023-05-07T03:53:06.484Z,11.12
2023-05-07T03:54:06.486Z,11.10
2023-05-07T03:55:06.470Z,11.10
2023-05-07T03:56:06.494Z,11.08
2023-05-07T03:57:06.468Z,11.04
2023-05-07T03:58:06.447Z,11.02
2023-05-07T03:59:06.426Z,10.94
2023-05-07T04:00:06.445Z,10.93
2023-05-07T04:01:06.437Z,10.96
2023-05-07T04:02:06.456Z,10.90
2023-05-07T04:03:06.447Z,10.84
2023-05-07T04:04:06.487Z,10.82
2023-05-07T04:05:06.441Z,10.82
2023-05-07T04:06:06.350Z,10.78
2023-05-07T04:07:06.351Z,10.79
2023-05-07T04:08:06.354Z,10.76
2023-05-07T04:09:06.335Z,10.75
2023-05-07T04:10:06.325Z,10.78
2023-05-07T04:11:06.432Z,10.78
2023-05-07T04:12:06.291Z,10.76
2023-05-07T04:13:06.330Z,10.75
2023-05-07T04:14:06.296Z,10.72
2023-05-07T04:15:06.283Z,10.68
2023-05-07T04:16:06.308Z,10.67
2023-05-07T04:17:06.276Z,10.69
2023-05-07T04:18:06.298Z,10.68
2023-05-07T04:19:06.260Z,10.68
2023-05-07T04:20:06.229Z,10.63
2023-05-07T04:21:06.195Z,10.67
2023-05-07T04:22:06.190Z,10.68
2023-05-07T04:23:06.180Z,10.69
2023-05-07T04:24:06.176Z,10.67
2023-05-07T04:25:06.164Z,10.68
2023-05-07T04:26:06.133Z,10.67
2023-05-07T04:27:06.134Z,10.63
2023-05-07T04:28:06.159Z,10.63
2023-05-07T04:29:06.141Z,10.61
2023-05-07T04:30:06.088Z,10.61
2023-05-07T04:31:06.097Z,10.60
2023-05-07T04:32:06.131Z,10.60
2023-05-07T04:33:06.273Z,10.57
2023-05-07T04:34:06.053Z,10.56
2023-05-07T04:35:06.052Z,10.57
2023-05-07T04:36:06.026Z,10.59
2023-05-07T04:37:06.058Z,10.49
2023-05-07T04:38:06.018Z,10.51
2023-05-07T04:39:06.015Z,10.51
2023-05-07T04:40:06.000Z,10.51
2023-05-07T04:41:05.976Z,10.51
2023-05-07T04:42:05.976Z,10.53
2023-05-07T04:43:05.974Z,10.49
2023-05-07T04:44:05.941Z,10.51
2023-05-07T04:45:05.955Z,10.51
2023-05-07T04:46:05.985Z,10.46
2023-05-07T04:47:05.935Z,10.46
2023-05-07T04:48:05.937Z,10.51
2023-05-07T04:49:05.930Z,10.51
2023-05-07T04:50:05.886Z,10.51
2023-05-07T04:51:05.871Z,10.54
2023-05-07T04:52:05.890Z,10.54
2023-05-07T04:53:05.850Z,10.54
2023-05-07T04:54:05.833Z,10.54
2023-05-07T04:55:05.833Z,10.57
2023-05-07T04:56:05.828Z,10.61
2023-05-07T04:57:05.841Z,10.60
2023-05-07T04:58:05.786Z,10.60
2023-05-07T04:59:05.791Z,10.57
2023-05-07T05:00:05.800Z,10.54
2023-05-07T05:01:05.925Z,10.57
2023-05-07T05:02:05.779Z,10.54
2023-05-07T05:03:05.863Z,10.54
2023-05-07T05:04:05.826Z,10.56
2023-05-07T05:05:05.729Z,10.57
2023-05-07T05:06:05.742Z,10.60
2023-05-07T05:07:05.736Z,10.61
2023-05-07T05:08:05.712Z,10.63
2023-05-07T05:09:05.699Z,10.60
2023-05-07T05:10:05.721Z,10.59
2023-05-07T05:11:05.790Z,10.61
2023-05-07T05:12:05.689Z,10.64
2023-05-07T05:13:05.710Z,10.64
2023-05-07T05:14:05.657Z,10.68
2023-05-07T05:15:05.892Z,10.71
2023-05-07T05:16:05.727Z,10.74
2023-05-07T05:17:05.599Z,10.75
2023-05-07T05:18:05.680Z,10.75
2023-05-07T05:19:05.582Z,10.74
2023-05-07T05:20:05.603Z,10.74
2023-05-07T05:21:05.581Z,10.75
2023-05-07T05:22:05.564Z,10.74
2023-05-07T05:23:06.724Z,10.71
2023-05-07T05:24:05.542Z,10.72
2023-05-07T05:25:05.547Z,10.72
2023-05-07T05:26:05.529Z,10.72
2023-05-07T05:27:05.588Z,10.75
2023-05-07T05:28:05.494Z,10.78
2023-05-07T05:29:05.522Z,10.79
2023-05-07T05:30:05.456Z,10.81
2023-05-07T05:31:05.514Z,10.86
2023-05-07T05:32:05.517Z,10.86
2023-05-07T05:33:05.479Z,10.90
2023-05-07T05:34:05.455Z,10.92
2023-05-07T05:35:05.414Z,10.94
2023-05-07T05:36:05.543Z,10.97
2023-05-07T05:37:05.397Z,10.96
2023-05-07T05:38:05.415Z,10.93
2023-05-07T05:39:05.413Z,10.93
2023-05-07T05:40:05.353Z,10.92
2023-05-07T05:41:05.374Z,10.93
2023-05-07T05:42:05.345Z,10.96
2023-05-07T05:43:05.402Z,10.99
2023-05-07T05:44:05.308Z,10.96
2023-05-07T05:45:05.299Z,10.97
2023-05-07T05:46:05.368Z,10.97
2023-05-07T05:47:05.288Z,10.97
2023-05-07T05:48:05.399Z,10.99
2023-05-07T05:49:05.260Z,11.00
2023-05-07T05:50:05.260Z,11.05
2023-05-07T05:51:05.262Z,11.08
2023-05-07T05:52:05.356Z,11.08
2023-05-07T05:53:05.248Z,11.12
2023-05-07T05:54:05.201Z,11.17
2023-05-07T05:55:05.225Z,11.17
2023-05-07T05:56:05.189Z,11.17
2023-05-07T05:57:05.197Z,11.14
2023-05-07T05:58:05.178Z,11.18
2023-05-07T05:59:05.292Z,11.19
2023-05-07T06:00:05.150Z,11.23
2023-05-07T06:01:06.134Z,11.29
2023-05-07T06:02:05.180Z,11.30
2023-05-07T06:03:05.145Z,11.32
2023-05-07T06:04:05.109Z,11.33
2023-05-07T06:05:05.134Z,11.37
2023-05-07T06:06:05.113Z,11.44
2023-05-07T06:07:05.109Z,11.51
2023-05-07T06:08:05.116Z,11.57
2023-05-07T06:09:05.072Z,11.54
2023-05-07T06:10:05.650Z,11.50
2023-05-07T06:11:05.051Z,11.45
2023-05-07T06:12:05.020Z,11.45
2023-05-07T06:13:05.136Z,11.45
2023-05-07T06:14:05.637Z,11.47
2023-05-07T06:15:05.001Z,11.48
2023-05-07T06:16:05.043Z,11.51
2023-05-07T06:17:05.065Z,11.54
2023-05-07T06:18:04.967Z,11.57
2023-05-07T06:19:04.957Z,11.63
2023-05-07T06:20:04.962Z,11.68
2023-05-07T06:21:04.938Z,11.75
2023-05-07T06:22:04.923Z,11.77
2023-05-07T06:23:04.898Z,11.84
2023-05-07T06:24:04.893Z,11.86
2023-05-07T06:25:04.896Z,11.80
2023-05-07T06:26:04.883Z,11.87
2023-05-07T06:27:04.922Z,11.88
2023-05-07T06:28:04.837Z,11.94
2023-05-07T06:29:04.863Z,11.95
2023-05-07T06:30:04.857Z,11.97
2023-05-07T06:31:04.821Z,11.97
2023-05-07T06:32:04.896Z,11.94
2023-05-07T06:33:04.854Z,11.95
2023-05-07T06:34:04.826Z,11.95
2023-05-07T06:35:04.783Z,11.88
2023-05-07T06:36:04.746Z,11.88
2023-05-07T06:37:04.749Z,11.88
2023-05-07T06:38:04.736Z,11.88
2023-05-07T06:39:04.781Z,11.94
2023-05-07T06:40:04.731Z,11.99
2023-05-07T06:41:04.726Z,11.99
2023-05-07T06:42:05.684Z,12.09
2023-05-07T06:43:05.144Z,12.12
2023-05-07T06:44:04.743Z,12.12
2023-05-07T06:45:05.652Z,12.15
2023-05-07T06:46:04.906Z,12.17
2023-05-07T06:47:04.642Z,12.28
2023-05-07T06:48:05.190Z,12.35
2023-05-07T06:49:04.617Z,12.29
2023-05-07T06:50:04.612Z,12.37
2023-05-07T06:51:04.621Z,12.39
2023-05-07T06:52:04.664Z,12.37
2023-05-07T06:53:05.187Z,12.35
2023-05-07T06:54:04.589Z,12.29
2023-05-07T06:55:04.552Z,12.35
2023-05-07T06:56:04.551Z,12.31
2023-05-07T06:57:04.602Z,12.31
2023-05-07T06:58:04.550Z,12.31
2023-05-07T06:59:04.525Z,12.29
2023-05-07T07:00:04.517Z,12.28
2023-05-07T07:01:04.542Z,12.27
2023-05-07T07:02:04.563Z,12.24
2023-05-07T07:03:04.511Z,12.25
2023-05-07T07:04:04.472Z,12.25
2023-05-07T07:05:04.562Z,12.25
2023-05-07T07:06:04.451Z,12.27
2023-05-07T07:07:04.472Z,12.25
2023-05-07T07:08:04.435Z,12.29
2023-05-07T07:09:04.451Z,12.32
2023-05-07T07:10:04.500Z,12.35
2023-05-07T07:11:04.413Z,12.37
2023-05-07T07:12:04.434Z,12.32
2023-05-07T07:13:04.476Z,12.32
2023-05-07T07:14:04.356Z,12.32
2023-05-07T07:15:04.396Z,12.39
2023-05-07T07:16:04.418Z,12.37
2023-05-07T07:17:04.334Z,12.46
2023-05-07T07:18:04.350Z,12.50
2023-05-07T07:19:04.311Z,12.62
2023-05-07T07:20:04.302Z,12.72
2023-05-07T07:21:04.327Z,12.72
2023-05-07T07:22:04.327Z,12.79
2023-05-07T07:23:04.265Z,12.85
2023-05-07T07:24:04.253Z,12.86
2023-05-07T07:25:04.256Z,12.90
2023-05-07T07:26:04.244Z,12.97
2023-05-07T07:27:04.227Z,13.03
2023-05-07T07:28:04.206Z,13.03
2023-05-07T07:29:04.196Z,13.01
2023-05-07T07:30:04.204Z,13.09
2023-05-07T07:31:04.238Z,13.12
2023-05-07T07:32:04.258Z,13.00
2023-05-07T07:33:04.329Z,13.03
2023-05-07T07:34:04.162Z,13.11
2023-05-07T07:35:04.174Z,13.16
2023-05-07T07:36:04.142Z,13.23
2023-05-07T07:37:04.114Z,13.23
2023-05-07T07:38:04.133Z,13.28
2023-05-07T07:39:04.142Z,13.28
2023-05-07T07:40:04.101Z,13.44
2023-05-07T07:41:04.083Z,13.53
2023-05-07T07:42:04.063Z,13.67
2023-05-07T07:43:04.068Z,13.63
2023-05-07T07:44:04.049Z,13.72
2023-05-07T07:45:04.026Z,13.77
2023-05-07T07:46:04.031Z,13.89
2023-05-07T07:47:04.086Z,14.00
2023-05-07T07:48:04.049Z,14.12
2023-05-07T07:49:04.129Z,14.28
2023-05-07T07:50:03.986Z,14.28
2023-05-07T07:51:03.977Z,14.40
2023-05-07T07:52:03.960Z,14.59
2023-05-07T07:53:03.991Z,14.77
2023-05-07T07:54:04.005Z,14.89
2023-05-07T07:55:03.930Z,15.14
2023-05-07T07:56:05.770Z,14.94
2023-05-07T07:57:03.891Z,15.14
2023-05-07T07:58:03.914Z,15.28
2023-05-07T07:59:03.892Z,15.22
2023-05-07T08:00:03.876Z,15.29
2023-05-07T08:01:03.887Z,15.54
2023-05-07T08:02:03.909Z,15.55
2023-05-07T08:03:04.092Z,15.58
2023-05-07T08:04:04.013Z,15.51
2023-05-07T08:05:03.819Z,15.62
2023-05-07T08:06:03.810Z,15.64
2023-05-07T08:07:03.825Z,15.76
2023-05-07T08:08:03.815Z,15.79
2023-05-07T08:09:03.787Z,15.80
2023-05-07T08:10:03.759Z,15.84
2023-05-07T08:11:03.797Z,15.75
2023-05-07T08:12:03.751Z,15.84
2023-05-07T08:13:03.787Z,15.97
2023-05-07T08:14:03.730Z,16.09
2023-05-07T08:15:03.711Z,16.35
2023-05-07T08:16:04.254Z,16.38
2023-05-07T08:17:03.942Z,16.31
2023-05-07T08:18:03.723Z,16.66
2023-05-07T08:19:04.274Z,16.78
2023-05-07T08:20:03.668Z,16.78
2023-05-07T08:21:03.926Z,16.83
2023-05-07T08:22:03.766Z,16.96
2023-05-07T08:23:03.649Z,16.90
2023-05-07T08:24:04.263Z,16.97
2023-05-07T08:25:03.598Z,17.12
2023-05-07T08:26:03.632Z,17.22
2023-05-07T08:27:03.649Z,17.19
2023-05-07T08:28:03.587Z,17.24
2023-05-07T08:29:03.566Z,17.33
2023-05-07T08:30:03.696Z,17.09
2023-05-07T08:31:03.667Z,17.20
2023-05-07T08:32:03.537Z,17.09
2023-05-07T08:33:03.608Z,17.27
2023-05-07T08:34:03.511Z,17.39
2023-05-07T08:35:03.510Z,17.44
2023-05-07T08:36:03.538Z,17.23
2023-05-07T08:37:04.570Z,17.31
2023-05-07T08:38:03.470Z,17.09
2023-05-07T08:39:03.465Z,17.04
2023-05-07T08:40:03.472Z,16.89
2023-05-07T08:41:03.443Z,16.61
2023-05-07T08:42:03.550Z,16.72
2023-05-07T08:43:03.404Z,16.86
2023-05-07T08:44:03.416Z,16.87
2023-05-07T08:45:03.415Z,16.50
2023-05-07T08:46:03.478Z,16.66
2023-05-07T08:47:03.372Z,16.84
2023-05-07T08:48:03.436Z,16.89
2023-05-07T08:49:03.355Z,17.06
2023-05-07T08:50:03.379Z,16.97
2023-05-07T08:51:03.319Z,16.74
2023-05-07T08:52:03.336Z,16.61
2023-05-07T08:53:03.310Z,16.17
2023-05-07T08:54:03.342Z,16.32
2023-05-07T08:55:03.282Z,16.64
2023-05-07T08:56:03.269Z,16.58
2023-05-07T08:57:03.257Z,16.66
2023-05-07T08:58:03.267Z,16.68
2023-05-07T08:59:03.255Z,16.76
2023-05-07T09:00:03.268Z,16.94
2023-05-07T09:01:03.208Z,17.14
2023-05-07T09:02:03.238Z,17.22
2023-05-07T09:03:03.243Z,17.12
2023-05-07T09:04:03.267Z,16.91
2023-05-07T09:05:03.181Z,16.74
2023-05-07T09:06:03.228Z,16.10
2023-05-07T09:07:03.160Z,16.23
2023-05-07T09:08:03.168Z,16.23
2023-05-07T09:09:03.128Z,16.38
2023-05-07T09:10:03.132Z,16.21
2023-05-07T09:11:03.128Z,16.42
2023-05-07T09:12:03.167Z,16.61
2023-05-07T09:13:03.205Z,16.64
2023-05-07T09:14:03.240Z,16.35
2023-05-07T09:15:03.672Z,16.33
2023-05-07T09:16:03.260Z,16.10
2023-05-07T09:17:03.078Z,15.82
2023-05-07T09:18:03.357Z,15.35
2023-05-07T09:19:03.014Z,15.39
2023-05-07T09:20:03.028Z,15.57
2023-05-07T09:21:02.998Z,15.68
2023-05-07T09:22:03.037Z,15.80
2023-05-07T09:23:03.696Z,15.79
2023-05-07T09:24:02.985Z,16.05
2023-05-07T09:25:04.038Z,16.26
2023-05-07T09:26:03.224Z,16.46
2023-05-07T09:27:02.946Z,16.65
2023-05-07T09:28:02.934Z,17.05
2023-05-07T09:29:02.925Z,17.19
2023-05-07T09:30:02.908Z,17.67
2023-05-07T09:31:02.915Z,17.85
2023-05-07T09:32:02.952Z,17.87
2023-05-07T09:33:02.995Z,17.42
2023-05-07T09:34:02.877Z,17.76
2023-05-07T09:35:02.880Z,17.92
2023-05-07T09:36:02.865Z,17.78
2023-05-07T09:37:02.827Z,17.48
2023-05-07T09:38:04.363Z,17.54
2023-05-07T09:39:02.793Z,17.90
2023-05-07T09:40:02.828Z,17.83
2023-05-07T09:41:02.842Z,18.00
2023-05-07T09:42:02.797Z,17.59
2023-05-07T09:43:02.781Z,17.52
2023-05-07T09:44:02.774Z,17.68
2023-05-07T09:45:02.787Z,17.36
2023-05-07T09:46:02.812Z,17.38
2023-05-07T09:47:03.296Z,17.36
2023-05-07T09:48:02.771Z,17.41
2023-05-07T09:49:02.731Z,17.49
2023-05-07T09:50:02.712Z,17.42
2023-05-07T09:51:02.698Z,17.14
2023-05-07T09:52:02.692Z,17.05
2023-05-07T09:53:02.682Z,17.05
2023-05-07T09:54:02.702Z,16.89
2023-05-07T09:55:02.736Z,16.99
2023-05-07T09:56:04.941Z,17.27
2023-05-07T09:57:03.198Z,17.48
2023-05-07T09:58:03.249Z,17.90
2023-05-07T09:59:02.615Z,17.86
2023-05-07T10:00:02.590Z,18.11
2023-05-07T10:01:02.634Z,18.31
2023-05-07T10:02:04.866Z,17.70
2023-05-07T10:03:02.658Z,17.49
2023-05-07T10:04:02.647Z,17.59
2023-05-07T10:05:02.527Z,17.70
2023-05-07T10:06:02.519Z,18.19
2023-05-07T10:07:02.504Z,18.60
2023-05-07T10:08:04.622Z,18.93
2023-05-07T10:09:02.500Z,18.86
2023-05-07T10:10:02.512Z,18.84
2023-05-07T10:11:02.494Z,18.80
2023-05-07T10:12:02.476Z,19.27
2023-05-07T10:13:02.511Z,20.48
2023-05-07T10:14:04.842Z,21.36
2023-05-07T10:15:02.415Z,21.54
2023-05-07T10:16:02.410Z,21.96
2023-05-07T10:17:02.451Z,22.38
2023-05-07T10:18:02.475Z,22.11
2023-05-07T10:19:02.377Z,21.12
2023-05-07T10:20:04.298Z,21.33
2023-05-07T10:21:02.350Z,21.27
2023-05-07T10:22:02.363Z,20.99
2023-05-07T10:23:02.393Z,21.29
2023-05-07T10:24:02.330Z,20.97
2023-05-07T10:25:02.318Z,21.12
2023-05-07T10:26:02.319Z,21.67
2023-05-07T10:27:02.363Z,22.41
2023-05-07T10:28:02.324Z,22.85
2023-05-07T10:29:02.269Z,22.41
2023-05-07T10:30:02.280Z,21.82
2023-05-07T10:31:02.329Z,21.24
2023-05-07T10:32:02.262Z,20.85
2023-05-07T10:33:02.302Z,20.34
2023-05-07T10:34:02.225Z,20.34
2023-05-07T10:35:02.203Z,20.34
2023-05-07T10:36:02.230Z,20.04
2023-05-07T10:37:02.196Z,19.67
2023-05-07T10:38:02.195Z,20.26
2023-05-07T10:39:02.159Z,20.36
2023-05-07T10:40:02.173Z,20.34
2023-05-07T10:41:02.161Z,20.34
2023-05-07T10:42:02.153Z,20.41
2023-05-07T10:43:02.125Z,20.75
2023-05-07T10:44:02.168Z,20.60
2023-05-07T10:45:02.137Z,21.00
2023-05-07T10:46:02.193Z,20.69
2023-05-07T10:47:02.102Z,19.74
2023-05-07T10:48:03.429Z,19.47
2023-05-07T10:49:02.144Z,19.94
2023-05-07T10:50:02.134Z,19.73
2023-05-07T10:51:02.048Z,19.49
2023-05-07T10:52:02.035Z,19.33
2023-05-07T10:53:02.032Z,19.24
2023-05-07T10:54:02.004Z,19.16
2023-05-07T10:55:02.232Z,19.02
2023-05-07T10:56:01.995Z,18.75
2023-05-07T10:57:01.968Z,18.65
2023-05-07T10:58:01.977Z,18.66
2023-05-07T10:59:01.965Z,18.77
2023-05-07T11:00:02.004Z,18.84
2023-05-07T11:01:01.928Z,18.63
2023-05-07T11:02:01.991Z,18.80
2023-05-07T11:03:01.945Z,18.73
2023-05-07T11:04:01.924Z,18.68
2023-05-07T11:05:01.947Z,18.73
2023-05-07T11:06:01.903Z,19.52
2023-05-07T11:07:01.906Z,19.54
2023-05-07T11:08:01.883Z,19.14
2023-05-07T11:09:01.876Z,19.04
2023-05-07T11:10:01.853Z,19.16
2023-05-07T11:11:01.848Z,19.18
2023-05-07T11:12:01.822Z,18.81
2023-05-07T11:13:01.905Z,18.77
2023-05-07T11:14:02.018Z,18.75
2023-05-07T11:15:01.788Z,18.89
2023-05-07T11:16:01.868Z,18.81
2023-05-07T11:17:01.782Z,18.62
2023-05-07T11:18:01.877Z,18.99
2023-05-07T11:19:01.748Z,19.04
2023-05-07T11:20:01.737Z,19.09
2023-05-07T11:21:01.777Z,19.14
2023-05-07T11:22:01.721Z,18.63
2023-05-07T11:23:01.721Z,18.60
2023-05-07T11:24:01.825Z,18.37
2023-05-07T11:25:01.756Z,18.58
2023-05-07T11:26:01.743Z,18.60
2023-05-07T11:27:01.690Z,18.52
2023-05-07T11:28:01.749Z,18.60
2023-05-07T11:29:01.667Z,19.02
2023-05-07T11:30:02.275Z,18.89
2023-05-07T11:31:01.621Z,18.62
2023-05-07T11:32:01.844Z,18.86
2023-05-07T11:33:01.672Z,18.81
2023-05-07T11:34:01.581Z,19.15
2023-05-07T11:35:01.648Z,19.55
2023-05-07T11:36:01.553Z,19.63
2023-05-07T11:37:01.556Z,19.27
2023-05-07T11:38:01.559Z,19.33
2023-05-07T11:39:01.516Z,19.19
2023-05-07T11:40:01.527Z,19.09
2023-05-07T11:41:01.505Z,19.04
2023-05-07T11:42:01.540Z,18.95
2023-05-07T11:43:01.482Z,18.90
2023-05-07T11:44:01.472Z,18.92
2023-05-07T11:45:01.458Z,18.92
2023-05-07T11:46:01.592Z,18.96
2023-05-07T11:47:01.627Z,18.84
2023-05-07T11:48:01.480Z,19.34
2023-05-07T11:49:01.410Z,19.69
2023-05-07T11:50:01.411Z,19.86
2023-05-07T11:51:01.417Z,19.74
2023-05-07T11:52:01.394Z,19.70
2023-05-07T11:53:01.368Z,19.44
2023-05-07T11:54:01.435Z,19.18
2023-05-07T11:55:01.354Z,19.00
2023-05-07T11:56:01.364Z,18.81
2023-05-07T11:57:01.340Z,18.41
2023-05-07T11:58:01.315Z,18.38
2023-05-07T11:59:01.307Z,18.33
2023-05-07T12:00:01.368Z,18.49
2023-05-07T12:01:01.330Z,18.58
2023-05-07T12:02:01.305Z,18.70
2023-05-07T12:03:01.362Z,18.56
2023-05-07T12:04:01.364Z,18.40
2023-05-07T12:05:01.255Z,18.68
2023-05-07T12:06:01.257Z,18.86
2023-05-07T12:07:01.229Z,19.26
2023-05-07T12:08:01.214Z,19.31
2023-05-07T12:09:01.199Z,19.49
2023-05-07T12:10:01.256Z,20.50
2023-05-07T12:11:01.191Z,21.37
2023-05-07T12:12:01.170Z,21.45
2023-05-07T12:13:01.275Z,22.06
2023-05-07T12:14:01.174Z,21.96
2023-05-07T12:15:01.160Z,22.15
2023-05-07T12:16:01.183Z,22.22
2023-05-07T12:17:01.210Z,22.18
2023-05-07T12:18:01.251Z,21.92
2023-05-07T12:19:01.863Z,21.54
2023-05-07T12:20:01.082Z,20.72
2023-05-07T12:21:01.089Z,20.32
2023-05-07T12:22:01.879Z,20.48
2023-05-07T12:23:01.735Z,20.88
2023-05-07T12:24:01.829Z,20.87
2023-05-07T12:25:01.221Z,20.93
2023-05-07T12:26:01.108Z,21.46
2023-05-07T12:27:01.100Z,21.92
2023-05-07T12:28:01.898Z,21.52
2023-05-07T12:29:01.875Z,21.35
2023-05-07T12:30:01.006Z,21.21
2023-05-07T12:31:00.990Z,21.46
2023-05-07T12:32:02.056Z,21.40
2023-05-07T12:33:01.878Z,21.58
2023-05-07T12:34:01.848Z,21.66
2023-05-07T12:35:00.922Z,21.57
2023-05-07T12:36:00.971Z,20.19
2023-05-07T12:37:00.904Z,19.37
2023-05-07T12:38:00.966Z,19.09
2023-05-07T12:39:00.896Z,18.80
2023-05-07T12:40:00.872Z,19.04
2023-05-07T12:41:00.877Z,18.74
2023-05-07T12:42:00.873Z,18.65
2023-05-07T12:43:01.064Z,17.98
2023-05-07T12:44:00.857Z,17.90
2023-05-07T12:45:00.854Z,18.41
2023-05-07T12:46:00.836Z,19.08
2023-05-07T12:47:01.164Z,19.99
2023-05-07T12:48:00.844Z,20.55
2023-05-07T12:49:00.779Z,20.28
2023-05-07T12:50:00.764Z,20.39
2023-05-07T12:51:00.805Z,20.66
2023-05-07T12:52:00.951Z,20.70